Time;durP1;ratioP1;P1;durP2;ratioP2;P2;SDS_P1;SDS_P2;PMS_P1;PMS_P2;Temp;Humidity;BMP_temperature;BMP_pressure;BME280_temperature;BME280_humidity;BME280_pressure;Samples;Min_cycle;Max_cycle;Signal;HPM_P1;HPM_P2
2021/04/07 00:00:26;;;;;;;8.83;6.33;;;;;;;-2.09;100.00;95403.84;1044533;28;20125;-46
2021/04/07 00:00:57;;;;;;;11.77;6.50;;;;;;;-2.02;100.00;95409.28;1044668;28;20075;-46
2021/04/07 00:01:27;;;;;;;9.80;6.03;;;;;;;-1.93;100.00;95403.31;1044683;28;20079;-47
2021/04/07 00:01:58;;;;;;;9.27;5.90;;;;;;;-1.96;100.00;95403.59;1044820;28;20017;-46
2021/04/07 00:02:28;;;;;;;9.00;6.03;;;;;;;-1.92;100.00;95401.56;1044741;28;20032;-46
2021/04/07 00:02:59;;;;;;;8.23;5.93;;;;;;;-1.92;100.00;95404.16;1045102;28;20021;-47
2021/04/07 00:03:30;;;;;;;11.93;7.27;;;;;;;-1.93;100.00;95403.31;1044888;28;20071;-46
2021/04/07 00:04:00;;;;;;;12.73;6.80;;;;;;;-1.92;100.00;95404.94;1044884;28;20017;-46
2021/04/07 00:04:31;;;;;;;8.83;6.60;;;;;;;-1.87;100.00;95396.81;1044855;28;20021;-48
2021/04/07 00:05:06;;;;;;;11.67;7.57;;;;;;;-1.81;100.00;95396.25;1045012;28;20108;-47
2021/04/07 00:05:38;;;;;;;10.63;8.25;;;;;;;-1.79;100.00;95395.19;1045224;28;20019;-46
2021/04/07 00:06:09;;;;;;;10.95;7.28;;;;;;;-1.76;100.00;95396.69;1040192;28;20048;-46
2021/04/07 00:06:40;;;;;;;8.67;5.90;;;;;;;-1.81;100.00;95396.25;1040393;28;20040;-46
2021/04/07 00:07:10;;;;;;;8.73;6.35;;;;;;;-1.84;100.00;95399.94;1036523;28;20456;-46
2021/04/07 00:07:43;;;;;;;10.83;7.30;;;;;;;-1.82;100.00;95399.81;1036837;28;20121;-48
2021/04/07 00:08:18;;;;;;;9.20;6.80;;;;;;;-1.82;100.00;95394.66;1040476;28;20017;-46
2021/04/07 00:08:50;;;;;;;9.18;6.45;;;;;;;-1.89;100.00;95398.72;1040434;28;20463;-46
2021/04/07 00:09:22;;;;;;;9.00;5.80;;;;;;;-1.95;100.00;95396.69;1040638;28;20013;-45
2021/04/07 00:09:52;;;;;;;11.35;6.13;;;;;;;-1.94;100.00;95401.69;1032172;28;20018;-45
2021/04/07 00:10:27;;;;;;;7.27;5.87;;;;;;;-1.89;100.00;95396.13;1028087;28;20030;-46
2021/04/07 00:10:57;;;;;;;8.93;5.78;;;;;;;-1.83;100.00;95393.00;1029342;28;20027;-47
2021/04/07 00:11:28;;;;;;;9.80;6.40;;;;;;;-1.82;100.00;95392.06;1029784;28;20544;-46
2021/04/07 00:11:58;;;;;;;8.33;6.37;;;;;;;-1.83;100.00;95387.84;1037333;28;20018;-47
2021/04/07 00:12:29;;;;;;;7.23;5.60;;;;;;;-1.81;100.00;95391.94;1040566;28;20021;-46
2021/04/07 00:12:59;;;;;;;8.93;5.93;;;;;;;-1.83;100.00;95391.22;1040422;28;20013;-45
2021/04/07 00:13:30;;;;;;;10.90;6.10;;;;;;;-1.89;100.00;95389.19;1040248;28;20021;-45
2021/04/07 00:14:02;;;;;;;9.23;6.37;;;;;;;-1.95;100.00;95389.75;1040055;28;20472;-46
2021/04/07 00:14:33;;;;;;;8.77;5.95;;;;;;;-1.90;100.00;95391.91;1040538;28;20410;-45
2021/04/07 00:15:16;;;;;;;8.40;5.80;;;;;;;-1.87;100.00;95389.88;1040587;28;20079;-46
2021/04/07 00:15:47;;;;;;;7.65;5.97;;;;;;;-1.94;100.00;95390.53;1040781;28;20440;-47
2021/04/07 00:16:17;;;;;;;9.57;6.37;;;;;;;-1.93;100.00;95392.19;1040770;28;20100;-46
2021/04/07 00:16:48;;;;;;;8.63;6.10;;;;;;;-1.87;100.00;95391.63;1040330;28;20014;-47
2021/04/07 00:17:19;;;;;;;8.75;5.95;;;;;;;-1.81;100.00;95391.94;1041447;28;20091;-51
2021/04/07 00:17:50;;;;;;;8.30;5.40;;;;;;;-1.84;100.00;95391.38;1040293;28;20024;-47
2021/04/07 00:18:20;;;;;;;8.27;6.10;;;;;;;-1.81;100.00;95396.25;1040248;28;20024;-51
2021/04/07 00:18:51;;;;;;;8.80;5.73;;;;;;;-1.82;100.00;95398.03;1040430;28;20025;-48
2021/04/07 00:19:21;;;;;;;9.90;6.43;;;;;;;-1.85;100.00;95394.91;1040436;28;20018;-46
2021/04/07 00:19:52;;;;;;;9.83;6.50;;;;;;;-1.99;100.00;95398.69;1040335;28;20483;-49
2021/04/07 00:20:24;;;;;;;9.83;6.27;;;;;;;-1.88;100.00;95396.00;1040538;28;20044;-46
2021/04/07 00:20:55;;;;;;;9.43;6.30;;;;;;;-1.80;100.00;95397.91;1040285;28;20435;-46
2021/04/07 00:21:25;;;;;;;9.07;6.30;;;;;;;-1.74;100.00;95391.38;1040841;28;20017;-47
2021/04/07 00:21:56;;;;;;;9.03;6.00;;;;;;;-1.70;100.00;95398.72;1040907;28;20014;-46
2021/04/07 00:22:27;;;;;;;10.07;7.00;;;;;;;-1.72;100.00;95394.63;1040866;28;20100;-46
2021/04/07 00:22:57;;;;;;;8.83;6.53;;;;;;;-1.71;100.00;95397.06;1040734;28;20013;-47
2021/04/07 00:23:28;;;;;;;10.13;6.67;;;;;;;-1.73;100.00;95403.31;1040881;28;20163;-50
2021/04/07 00:23:58;;;;;;;8.70;6.00;;;;;;;-1.78;100.00;95395.97;1040330;28;20025;-46
2021/04/07 00:24:29;;;;;;;11.10;6.27;;;;;;;-1.73;100.00;95399.00;1040226;28;20469;-47
2021/04/07 00:24:59;;;;;;;7.83;6.20;;;;;;;-1.77;100.00;95402.78;1040177;28;20108;-49
2021/04/07 00:25:30;;;;;;;12.23;6.57;;;;;;;-1.93;100.00;95395.56;1040477;28;20117;-46
2021/04/07 00:26:01;;;;;;;12.60;6.73;;;;;;;-2.01;100.00;95403.19;1036295;28;20045;-46
2021/04/07 00:26:33;;;;;;;9.80;6.87;;;;;;;-2.00;100.00;95402.25;1032522;28;20026;-47
2021/04/07 00:27:09;;;;;;;8.73;6.20;;;;;;;-1.90;100.00;95397.06;1029096;28;20027;-47
2021/04/07 00:27:41;;;;;;;8.35;5.75;;;;;;;-1.87;100.00;95397.59;1030173;28;20038;-46
2021/04/07 00:28:12;;;;;;;10.43;6.43;;;;;;;-1.85;100.00;95400.88;1037788;28;20010;-47
2021/04/07 00:28:43;;;;;;;9.10;5.93;;;;;;;-1.80;100.00;95401.28;1040185;28;20084;-48
2021/04/07 00:29:13;;;;;;;11.23;6.37;;;;;;;-1.80;100.00;95393.53;1036250;28;20172;-45
2021/04/07 00:29:44;;;;;;;9.80;5.97;;;;;;;-1.70;100.00;95397.88;1032357;28;20129;-46
2021/04/07 00:30:15;;;;;;;11.33;6.57;;;;;;;-1.82;100.00;95394.66;1028105;28;20458;-46
2021/04/07 00:30:45;;;;;;;9.35;6.47;;;;;;;-1.86;100.00;95396.66;1028574;28;20458;-45
2021/04/07 00:31:16;;;;;;;9.07;6.17;;;;;;;-1.80;100.00;95390.97;1032564;28;20026;-47
2021/04/07 00:31:47;;;;;;;10.30;7.00;;;;;;;-1.87;100.00;95397.59;1032306;28;20018;-47
2021/04/07 00:32:17;;;;;;;9.17;5.67;;;;;;;-1.82;100.00;95395.44;1036182;28;20018;-47
2021/04/07 00:32:48;;;;;;;7.53;6.17;;;;;;;-1.83;100.00;95393.00;1036363;28;20036;-47
2021/04/07 00:33:18;;;;;;;11.40;6.73;;;;;;;-1.89;100.00;95399.53;1040280;28;20093;-48
2021/04/07 00:33:49;;;;;;;7.87;6.00;;;;;;;-1.81;100.00;95396.25;1040692;28;20137;-47
2021/04/07 00:34:19;;;;;;;10.53;6.47;;;;;;;-1.86;100.00;95394.09;1040680;28;20092;-47
2021/04/07 00:34:50;;;;;;;10.67;6.90;;;;;;;-1.95;100.00;95400.06;1040345;28;20104;-47
2021/04/07 00:35:21;;;;;;;12.40;7.03;;;;;;;-1.89;100.00;95390.97;1040403;28;20013;-47
2021/04/07 00:35:52;;;;;;;9.02;6.57;;;;;;;-1.84;100.00;95397.38;1040501;28;20017;-46
2021/04/07 00:36:22;;;;;;;11.10;6.10;;;;;;;-1.82;100.00;95392.88;1036386;28;20014;-46
2021/04/07 00:36:53;;;;;;;7.80;6.13;;;;;;;-2.01;100.00;95401.41;1036239;28;20029;-47
2021/04/07 00:37:23;;;;;;;8.50;6.43;;;;;;;-2.02;100.00;95393.81;1036427;28;20151;-46
2021/04/07 00:37:54;;;;;;;9.37;6.37;;;;;;;-1.98;100.00;95390.00;1036742;28;20427;-47
2021/04/07 00:38:24;;;;;;;8.70;6.70;;;;;;;-1.99;100.00;95399.53;1036423;28;20010;-47
2021/04/07 00:38:55;;;;;;;10.40;6.83;;;;;;;-1.94;100.00;95395.72;1040012;28;20105;-47
2021/04/07 00:39:26;;;;;;;10.17;6.33;;;;;;;-1.88;100.00;95397.75;1036486;28;20055;-47
2021/04/07 00:39:56;;;;;;;9.63;6.60;;;;;;;-1.89;100.00;95393.56;1036482;28;20014;-47
2021/04/07 00:40:27;;;;;;;8.20;6.00;;;;;;;-1.89;100.00;95396.13;1040347;28;20021;-49
2021/04/07 00:40:57;;;;;;;10.57;7.00;;;;;;;-2.00;100.00;95394.50;1040559;28;20073;-48
2021/04/07 00:41:28;;;;;;;8.30;6.57;;;;;;;-1.98;100.00;95395.97;1044475;28;20009;-47
2021/04/07 00:42:05;;;;;;;9.87;6.40;;;;;;;-1.97;100.00;95389.06;1040757;28;20424;-48
2021/04/07 00:42:37;;;;;;;9.00;6.00;;;;;;;-1.94;100.00;95393.97;1040687;28;20411;-48
2021/04/07 00:43:08;;;;;;;10.95;6.50;;;;;;;-1.90;100.00;95391.91;1040290;28;20014;-47
2021/04/07 00:43:38;;;;;;;8.47;6.40;;;;;;;-1.85;100.00;95395.72;1040248;28;20376;-47
2021/04/07 00:44:09;;;;;;;8.60;6.60;;;;;;;-1.76;100.00;95393.25;1040547;28;20550;-47
2021/04/07 00:44:40;;;;;;;8.43;6.10;;;;;;;-1.80;100.00;95390.97;1040247;28;20021;-45
2021/04/07 00:45:11;;;;;;;8.80;6.23;;;;;;;-1.80;100.00;95383.22;1036173;28;20257;-46
2021/04/07 00:45:42;;;;;;;8.77;5.97;;;;;;;-1.74;100.00;95386.22;1036230;28;20490;-47
2021/04/07 00:46:13;;;;;;;9.10;6.17;;;;;;;-1.71;100.00;95393.69;1036248;28;20033;-48
2021/04/07 00:46:43;;;;;;;8.70;6.30;;;;;;;-1.79;100.00;95394.38;1037358;28;20024;-46
2021/04/07 00:47:15;;;;;;;10.83;6.33;;;;;;;-1.83;100.00;95388.66;1041157;28;20514;-47
2021/04/07 00:47:47;;;;;;;8.57;5.95;;;;;;;-1.81;100.00;95394.50;1033309;28;20456;-47
2021/04/07 00:48:18;;;;;;;10.13;5.95;;;;;;;-1.82;100.00;95386.91;1037062;28;20373;-46
2021/04/07 00:48:48;;;;;;;8.63;6.47;;;;;;;-1.90;100.00;95395.28;1037829;28;20013;-46
2021/04/07 00:49:19;;;;;;;9.50;6.43;;;;;;;-1.94;100.00;95391.38;1033815;28;20022;-47
2021/04/07 00:49:50;;;;;;;11.50;7.00;;;;;;;-1.97;100.00;95386.50;1037044;28;20024;-47
2021/04/07 00:50:23;;;;;;;11.90;7.00;;;;;;;-1.91;100.00;95388.53;1036949;28;20053;-46
2021/04/07 00:50:54;;;;;;;9.60;6.32;;;;;;;-1.86;100.00;95388.91;1036995;28;20069;-47
2021/04/07 00:51:25;;;;;;;9.70;7.00;;;;;;;-1.90;100.00;95387.56;1037478;28;20452;-47
2021/04/07 00:51:55;;;;;;;12.60;6.47;;;;;;;-1.88;100.00;95390.00;1041643;28;20336;-50
2021/04/07 00:52:26;;;;;;;9.80;5.93;;;;;;;-1.94;100.00;95390.53;1041013;28;20014;-46
2021/04/07 00:52:56;;;;;;;9.10;6.27;;;;;;;-1.92;100.00;95388.66;1041188;28;20026;-46
2021/04/07 00:53:27;;;;;;;10.33;6.47;;;;;;;-1.89;100.00;95394.34;1041230;28;20028;-46
2021/04/07 00:53:58;;;;;;;9.27;6.33;;;;;;;-1.85;100.00;95395.72;1041174;28;20021;-47
2021/04/07 00:54:28;;;;;;;8.13;5.73;;;;;;;-1.82;100.00;95395.44;1041375;28;20378;-47
2021/04/07 00:55:00;;;;;;;9.13;5.90;;;;;;;-1.81;100.00;95393.69;1041384;28;20024;-47
2021/04/07 00:55:34;;;;;;;6.93;5.25;;;;;;;-1.77;100.00;95391.66;1041020;28;20097;-46
2021/04/07 00:56:04;;;;;;;12.80;6.38;;;;;;;-1.90;100.00;95399.66;1041133;28;20029;-46
2021/04/07 00:56:35;;;;;;;8.33;5.70;;;;;;;-1.89;100.00;95396.13;1037113;28;20022;-48
2021/04/07 00:57:06;;;;;;;10.63;6.20;;;;;;;-1.83;100.00;95406.72;1037655;28;20038;-47
2021/04/07 00:57:36;;;;;;;10.43;6.57;;;;;;;-1.82;100.00;95400.59;1041139;28;20491;-47
2021/04/07 00:58:07;;;;;;;9.93;6.33;;;;;;;-1.84;100.00;95399.94;1040988;28;20017;-48
2021/04/07 00:58:37;;;;;;;9.23;5.73;;;;;;;-1.87;100.00;95400.19;1041146;28;20100;-47
2021/04/07 00:59:08;;;;;;;13.63;6.07;;;;;;;-2.00;100.00;95402.25;1041486;28;20022;-47
2021/04/07 00:59:38;;;;;;;9.37;6.43;;;;;;;-1.99;100.00;95396.13;1042103;28;20029;-47
2021/04/07 01:00:10;;;;;;;11.97;6.47;;;;;;;-1.94;100.00;95398.28;1040790;28;20032;-45
2021/04/07 01:00:40;;;;;;;8.00;5.80;;;;;;;-1.90;100.00;95395.28;1041110;28;20014;-46
2021/04/07 01:01:11;;;;;;;10.53;6.40;;;;;;;-1.89;100.00;95401.28;1041133;28;20491;-46
2021/04/07 01:01:42;;;;;;;8.87;6.20;;;;;;;-1.87;100.00;95399.38;1041136;28;20511;-47
2021/04/07 01:02:15;;;;;;;10.70;6.20;;;;;;;-1.87;100.00;95396.81;1041072;28;20026;-46
2021/04/07 01:02:46;;;;;;;10.43;6.50;;;;;;;-1.92;100.00;95401.56;1037075;28;20084;-46
2021/04/07 01:03:16;;;;;;;9.53;5.60;;;;;;;-1.86;100.00;95395.88;1033059;28;20026;-46
2021/04/07 01:03:47;;;;;;;11.40;5.80;;;;;;;-1.81;100.00;95394.50;1033446;28;20125;-46
2021/04/07 01:04:18;;;;;;;8.90;6.10;;;;;;;-1.82;100.00;95398.03;1033159;28;20477;-46
2021/04/07 01:04:49;;;;;;;12.63;6.03;;;;;;;-1.83;100.00;95395.59;1037255;28;20025;-46
2021/04/07 01:05:19;;;;;;;8.90;5.60;;;;;;;-1.82;100.00;95398.03;1040932;28;20101;-46
2021/04/07 01:05:50;;;;;;;8.13;5.43;;;;;;;-1.82;100.00;95395.44;1037257;28;20037;-46
2021/04/07 01:06:20;;;;;;;9.20;5.57;;;;;;;-1.77;100.00;95394.25;1032921;28;20102;-46
2021/04/07 01:06:51;;;;;;;7.37;5.80;;;;;;;-1.77;100.00;95400.19;1028948;28;20023;-46
2021/04/07 01:07:22;;;;;;;9.30;5.93;;;;;;;-1.79;100.00;95397.75;1024849;29;20019;-46
2021/04/07 01:07:56;;;;;;;6.93;5.47;;;;;;;-1.76;100.00;95403.59;1025442;28;20030;-45
2021/04/07 01:08:26;;;;;;;22.13;7.00;;;;;;;-1.78;100.00;95393.41;1025297;28;20023;-48
2021/04/07 01:08:57;;;;;;;7.93;5.33;;;;;;;-1.83;100.00;95400.75;1030266;28;20014;-46
2021/04/07 01:09:27;;;;;;;8.17;5.53;;;;;;;-1.83;100.00;95398.97;1037076;28;20124;-45
2021/04/07 01:09:58;;;;;;;8.80;5.87;;;;;;;-1.89;100.00;95393.56;1037573;28;20018;-46
2021/04/07 01:10:29;;;;;;;10.70;5.90;;;;;;;-1.83;100.00;95395.59;1041483;28;20045;-45
2021/04/07 01:11:00;;;;;;;9.10;5.20;;;;;;;-1.85;100.00;95395.72;1037132;28;20017;-45
2021/04/07 01:11:30;;;;;;;7.23;5.03;;;;;;;-1.81;100.00;95391.09;1036879;28;20030;-53
2021/04/07 01:12:01;;;;;;;8.10;5.27;;;;;;;-1.80;100.00;95401.28;1037233;28;20046;-45
2021/04/07 01:12:32;;;;;;;12.03;5.93;;;;;;;-1.81;100.00;95388.50;1037413;28;20072;-48
2021/04/07 01:13:03;;;;;;;8.43;5.80;;;;;;;-1.79;100.00;95395.19;1040966;28;20126;-47
2021/04/07 01:13:33;;;;;;;6.80;5.23;;;;;;;-1.73;100.00;95395.56;1036896;28;20526;-47
2021/04/07 01:14:04;;;;;;;7.43;5.23;;;;;;;-1.71;100.00;95391.09;1032918;28;20305;-47
2021/04/07 01:14:35;;;;;;;8.30;5.27;;;;;;;-1.76;100.00;95399.25;1033202;28;20459;-45
2021/04/07 01:15:07;;;;;;;8.00;5.43;;;;;;;-1.84;100.00;95396.53;1033280;28;20253;-46
2021/04/07 01:15:37;;;;;;;8.48;4.72;;;;;;;-1.81;100.00;95396.25;1032905;28;20019;-47
2021/04/07 01:16:08;;;;;;;11.33;5.73;;;;;;;-1.77;100.00;95399.41;1032963;28;20023;-50
2021/04/07 01:16:38;;;;;;;10.40;5.37;;;;;;;-1.76;100.00;95401.84;1033424;28;20026;-46
2021/04/07 01:17:09;;;;;;;7.30;4.93;;;;;;;-1.75;100.00;95392.31;1040768;28;20028;-46
2021/04/07 01:17:39;;;;;;;8.03;5.67;;;;;;;-1.73;100.00;95393.00;1037224;28;20029;-47
2021/04/07 01:18:10;;;;;;;8.40;5.40;;;;;;;-1.70;100.00;95397.88;1033162;28;20019;-46
2021/04/07 01:18:41;;;;;;;7.45;5.10;;;;;;;-1.71;100.00;95396.28;1036889;28;20018;-47
2021/04/07 01:19:12;;;;;;;6.37;4.80;;;;;;;-1.71;100.00;95399.66;1041315;28;20041;-47
2021/04/07 01:19:42;;;;;;;8.67;5.80;;;;;;;-1.68;100.00;95396.00;1041090;28;20428;-46
2021/04/07 01:20:15;;;;;;;8.20;4.90;;;;;;;-1.70;100.00;95395.28;1036973;28;20028;-52
2021/04/07 01:20:46;;;;;;;9.05;5.15;;;;;;;-1.70;100.00;95395.28;1037063;28;20026;-48
2021/04/07 01:21:16;;;;;;;10.27;5.00;;;;;;;-1.68;100.00;95393.41;1033574;28;20441;-47
2021/04/07 01:21:47;;;;;;;7.37;5.10;;;;;;;-1.73;100.00;95395.56;1033878;28;20118;-46
2021/04/07 01:22:20;;;;;;;8.33;5.33;;;;;;;-1.72;100.00;95392.84;1032833;28;20026;-46
2021/04/07 01:22:59;;;;;;;9.00;4.97;;;;;;;-1.70;100.00;95400.47;1033274;28;20384;-47
2021/04/07 01:23:31;;;;;;;7.32;5.20;;;;;;;-1.70;100.00;95396.13;1038928;28;20029;-47
2021/04/07 01:24:03;;;;;;;8.18;5.20;;;;;;;-1.66;100.00;95397.47;1036686;28;20100;-47
2021/04/07 01:24:33;;;;;;;8.57;4.80;;;;;;;-1.66;100.00;95399.25;1037217;28;20040;-47
2021/04/07 01:25:08;;;;;;;8.60;4.90;;;;;;;-1.69;100.00;95395.16;1032845;28;20050;-46
2021/04/07 01:25:39;;;;;;;7.90;4.72;;;;;;;-1.64;100.00;95394.75;1035122;28;20461;-46
2021/04/07 01:26:09;;;;;;;7.17;5.07;;;;;;;-1.65;100.00;95396.53;1039818;28;20025;-46
2021/04/07 01:26:41;;;;;;;7.90;4.57;;;;;;;-1.68;100.00;95401.97;1037693;28;20415;-46
2021/04/07 01:27:11;;;;;;;12.55;5.30;;;;;;;-1.76;100.00;95395.84;1037225;28;20018;-45
2021/04/07 01:27:42;;;;;;;8.57;5.07;;;;;;;-1.74;100.00;95397.34;1032708;28;20137;-48
2021/04/07 01:28:13;;;;;;;10.13;4.83;;;;;;;-1.74;100.00;95394.75;1033112;28;20015;-48
2021/04/07 01:28:43;;;;;;;7.77;4.77;;;;;;;-1.71;100.00;95398.84;1036959;28;20018;-46
2021/04/07 01:29:14;;;;;;;10.57;4.93;;;;;;;-1.69;100.00;95396.94;1037205;28;20010;-46
2021/04/07 01:29:45;;;;;;;10.73;4.53;;;;;;;-1.68;100.00;95403.72;1037229;28;20077;-48
2021/04/07 01:30:16;;;;;;;7.47;4.87;;;;;;;-1.77;100.00;95397.63;1037234;28;20445;-45
2021/04/07 01:30:47;;;;;;;7.10;4.60;;;;;;;-1.79;100.00;95397.75;1033334;28;20064;-46
2021/04/07 01:31:17;;;;;;;8.83;4.47;;;;;;;-1.73;100.00;95400.72;1037438;28;20488;-46
2021/04/07 01:31:52;;;;;;;8.27;4.87;;;;;;;-1.74;100.00;95393.97;1033061;28;20019;-49
2021/04/07 01:32:23;;;;;;;6.15;4.60;;;;;;;-1.72;100.00;95390.28;1029865;28;20019;-48
2021/04/07 01:32:53;;;;;;;8.20;5.10;;;;;;;-1.69;100.00;95394.34;1029172;28;20523;-47
2021/04/07 01:33:24;;;;;;;8.17;5.07;;;;;;;-1.65;100.00;95396.53;1030469;28;20026;-46
2021/04/07 01:33:55;;;;;;;7.20;4.40;;;;;;;-1.69;100.00;95395.16;1036939;28;20014;-47
2021/04/07 01:34:27;;;;;;;9.17;4.70;;;;;;;-1.64;100.00;95403.31;1039272;28;20253;-47
2021/04/07 01:34:57;;;;;;;8.15;4.88;;;;;;;-1.64;100.00;95397.31;1045480;28;20055;-46
2021/04/07 01:35:28;;;;;;;9.80;4.63;;;;;;;-1.62;100.00;95398.81;1045289;28;20024;-46
2021/04/07 01:35:58;;;;;;;9.87;4.93;;;;;;;-1.59;100.00;95405.50;1045681;28;20112;-46
2021/04/07 01:36:29;;;;;;;6.30;4.60;;;;;;;-1.62;100.00;95400.59;1045593;28;20017;-47
2021/04/07 01:37:03;;;;;;;10.10;4.73;;;;;;;-1.59;100.00;95404.66;1045604;28;20013;-47
2021/04/07 01:37:36;;;;;;;6.55;4.47;;;;;;;-1.56;100.00;95404.38;1045284;28;20024;-46
2021/04/07 01:38:07;;;;;;;9.18;4.90;;;;;;;-1.58;100.00;95404.53;1045427;28;20103;-46
2021/04/07 01:38:37;;;;;;;8.40;4.83;;;;;;;-1.58;100.00;95401.94;1045112;28;20442;-46
2021/04/07 01:39:08;;;;;;;9.20;5.20;;;;;;;-1.62;100.00;95408.34;1045402;28;20009;-47
2021/04/07 01:39:38;;;;;;;8.20;4.67;;;;;;;-1.61;100.00;95404.78;1045707;28;20548;-46
2021/04/07 01:40:11;;;;;;;12.37;5.10;;;;;;;-1.69;100.00;95402.09;1045590;28;20009;-46
2021/04/07 01:40:42;;;;;;;9.63;5.25;;;;;;;-1.70;100.00;95403.88;1045916;28;20374;-46
2021/04/07 01:41:12;;;;;;;8.48;4.40;;;;;;;-1.65;100.00;95406.84;1045765;28;20013;-45
2021/04/07 01:41:44;;;;;;;11.53;5.20;;;;;;;-1.65;100.00;95406.84;1045768;28;20021;-47
2021/04/07 01:42:15;;;;;;;10.20;4.80;;;;;;;-1.69;100.00;95402.91;1045222;28;20020;-45
2021/04/07 01:42:46;;;;;;;7.03;4.80;;;;;;;-1.65;100.00;95396.53;1045586;28;20013;-45
2021/04/07 01:43:17;;;;;;;10.15;4.68;;;;;;;-1.64;100.00;95402.50;1045322;28;20013;-45
2021/04/07 01:43:48;;;;;;;9.40;4.90;;;;;;;-1.62;100.00;95401.41;1043501;28;20013;-45
2021/04/07 01:44:20;;;;;;;10.70;5.40;;;;;;;-1.60;100.00;95403.84;1043640;28;20027;-48
2021/04/07 01:44:50;;;;;;;8.57;4.80;;;;;;;-1.59;100.00;95402.06;1036768;28;20045;-47
2021/04/07 01:45:21;;;;;;;8.40;5.33;;;;;;;-1.58;100.00;95398.56;1033027;28;20023;-48
2021/04/07 01:45:51;;;;;;;8.10;4.90;;;;;;;-1.56;100.00;95406.97;1032985;28;20100;-47
2021/04/07 01:46:22;;;;;;;8.90;5.20;;;;;;;-1.75;100.00;95402.66;1029534;28;20436;-47
2021/04/07 01:46:52;;;;;;;7.10;4.80;;;;;;;-1.68;100.00;95401.97;1037099;28;20165;-47
2021/04/07 01:47:23;;;;;;;10.47;4.70;;;;;;;-1.61;100.00;95404.78;1045215;28;20100;-46
2021/04/07 01:47:55;;;;;;;9.43;4.47;;;;;;;-1.59;100.00;95399.50;1045442;28;20048;-46
2021/04/07 01:48:26;;;;;;;9.57;4.72;;;;;;;-1.67;100.00;95406.19;1047695;28;20020;-45
2021/04/07 01:48:56;;;;;;;7.15;4.82;;;;;;;-1.64;100.00;95405.06;1041553;28;20025;-46
2021/04/07 01:49:27;;;;;;;6.87;4.70;;;;;;;-1.55;100.00;95400.84;1041446;28;20116;-46
2021/04/07 01:49:59;;;;;;;6.63;5.00;;;;;;;-1.61;100.00;95402.22;1041128;28;20025;-46
2021/04/07 01:50:29;;;;;;;9.55;5.20;;;;;;;-1.68;100.00;95408.91;1037027;28;20014;-46
2021/04/07 01:51:00;;;;;;;7.27;4.93;;;;;;;-1.69;100.00;95402.91;1033168;28;20468;-49
2021/04/07 01:51:32;;;;;;;9.63;4.87;;;;;;;-1.64;100.00;95408.47;1033479;28;20388;-46
2021/04/07 01:52:02;;;;;;;6.72;4.72;;;;;;;-1.67;100.00;95401.03;1039285;28;20380;-46
2021/04/07 01:52:33;;;;;;;6.43;4.67;;;;;;;-1.65;100.00;95414.59;1043258;28;20036;-47
2021/04/07 01:53:03;;;;;;;8.43;5.50;;;;;;;-1.74;100.00;95407.66;1041010;28;20029;-47
2021/04/07 01:53:34;;;;;;;8.23;5.20;;;;;;;-1.70;100.00;95408.19;1041051;28;20108;-48
2021/04/07 01:54:06;;;;;;;8.77;4.63;;;;;;;-1.71;100.00;95407.41;1041127;28;20029;-48
2021/04/07 01:54:37;;;;;;;11.00;5.18;;;;;;;-1.65;100.00;95411.22;1041325;28;20017;-46
2021/04/07 01:55:08;;;;;;;7.83;5.10;;;;;;;-1.61;100.00;95407.38;1041501;28;20024;-46
2021/04/07 01:55:39;;;;;;;8.32;4.75;;;;;;;-1.63;100.00;95415.25;1041171;28;20045;-46
2021/04/07 01:56:10;;;;;;;9.57;4.80;;;;;;;-1.63;100.00;95414.44;1033193;28;20023;-48
2021/04/07 01:56:50;;;;;;;7.93;4.87;;;;;;;-1.67;100.00;95418.25;1033177;28;20089;-46
2021/04/07 01:57:21;;;;;;;6.93;4.80;;;;;;;-1.63;100.00;95411.88;1033176;28;20072;-47
2021/04/07 01:57:52;;;;;;;8.67;4.90;;;;;;;-1.64;100.00;95420.56;1036637;28;20067;-46
2021/04/07 01:58:22;;;;;;;8.60;4.77;;;;;;;-1.57;100.00;95413.91;1046419;28;20022;-48
2021/04/07 01:59:06;;;;;;;7.57;4.70;;;;;;;-1.55;100.00;95426.66;1049251;28;20513;-45
2021/04/07 01:59:36;;;;;;;6.82;4.25;;;;;;;-1.55;99.87;95422.34;1047573;28;20025;-46
2021/04/07 02:00:11;;;;;;;8.20;4.53;;;;;;;-1.58;100.00;95414.84;1045075;28;20108;-47
2021/04/07 02:00:42;;;;;;;8.27;4.43;;;;;;;-1.60;100.00;95421.91;1045612;28;20066;-45
2021/04/07 02:01:13;;;;;;;8.63;4.20;;;;;;;-1.59;99.51;95417.56;1045410;28;20580;-45
2021/04/07 02:01:43;;;;;;;7.60;4.10;;;;;;;-1.65;99.06;95417.16;1045035;28;20025;-45
2021/04/07 02:02:14;;;;;;;6.77;3.63;;;;;;;-1.69;99.13;95415.81;1045243;28;20025;-45
2021/04/07 02:02:44;;;;;;;7.13;4.30;;;;;;;-1.75;100.00;95415.53;1041172;28;20021;-46
2021/04/07 02:03:15;;;;;;;9.37;4.30;;;;;;;-1.86;100.00;95419.88;1045080;28;20021;-46
2021/04/07 02:03:45;;;;;;;7.43;4.50;;;;;;;-1.91;100.00;95418.66;1041250;28;20459;-48
2021/04/07 02:04:16;;;;;;;12.40;4.50;;;;;;;-1.85;100.00;95425.88;1041277;28;20132;-46
2021/04/07 02:04:47;;;;;;;6.00;4.17;;;;;;;-1.92;100.00;95423.00;1045055;28;20021;-48
2021/04/07 02:05:17;;;;;;;7.53;4.70;;;;;;;-1.93;100.00;95418.78;1045178;28;20013;-46
2021/04/07 02:05:48;;;;;;;9.43;4.43;;;;;;;-1.93;100.00;95431.69;1045504;28;20404;-47
2021/04/07 02:06:18;;;;;;;8.70;4.40;;;;;;;-2.05;100.00;95425.88;1045459;28;20474;-46
2021/04/07 02:06:49;;;;;;;9.37;4.33;;;;;;;-2.06;100.00;95426.81;1045613;28;20024;-48
2021/04/07 02:07:19;;;;;;;8.60;4.80;;;;;;;-2.11;100.00;95428.97;1045227;28;20094;-46
2021/04/07 02:07:50;;;;;;;9.07;4.30;;;;;;;-2.08;100.00;95430.47;1045236;28;20013;-46
2021/04/07 02:08:20;;;;;;;7.27;4.53;;;;;;;-2.04;100.00;95432.63;1045158;28;20080;-46
2021/04/07 02:08:51;;;;;;;7.33;4.73;;;;;;;-2.07;100.00;95424.38;1045124;28;20017;-46
2021/04/07 02:09:22;;;;;;;6.83;4.50;;;;;;;-2.04;100.00;95422.31;1045749;28;20088;-46
2021/04/07 02:09:52;;;;;;;8.47;5.20;;;;;;;-2.03;100.00;95423.16;1045858;28;20016;-45
2021/04/07 02:10:23;;;;;;;8.30;4.67;;;;;;;-2.03;100.00;95428.31;1045273;28;20063;-46
2021/04/07 02:10:53;;;;;;;9.43;4.40;;;;;;;-2.01;100.00;95427.22;1045427;28;20035;-47
2021/04/07 02:11:24;;;;;;;9.07;5.10;;;;;;;-2.03;100.00;95430.91;1045099;28;20053;-46
2021/04/07 02:11:55;;;;;;;9.40;4.53;;;;;;;-1.98;100.00;95437.25;1045315;28;20167;-46
2021/04/07 02:12:26;;;;;;;10.67;4.70;;;;;;;-2.02;100.00;95429.91;1045689;28;20021;-48
2021/04/07 02:12:57;;;;;;;9.60;4.78;;;;;;;-2.01;100.00;95434.94;1049430;28;20355;-46
2021/04/07 02:13:28;;;;;;;8.18;4.93;;;;;;;-1.94;100.00;95434.41;1049320;28;20073;-46
2021/04/07 02:13:58;;;;;;;8.87;4.70;;;;;;;-2.00;100.00;95436.59;1049363;28;20059;-46
2021/04/07 02:14:29;;;;;;;7.80;5.03;;;;;;;-2.09;100.00;95434.00;1044862;28;20024;-46
2021/04/07 02:15:00;;;;;;;6.30;5.00;;;;;;;-2.08;100.00;95436.47;1045324;28;20017;-45
2021/04/07 02:15:30;;;;;;;9.13;4.80;;;;;;;-2.07;100.00;95427.75;1041076;28;20018;-46
2021/04/07 02:16:09;;;;;;;8.57;4.70;;;;;;;-2.11;100.00;95430.72;1041175;28;20093;-46
2021/04/07 02:16:39;;;;;;;10.00;4.78;;;;;;;-2.12;100.00;95429.94;1045059;28;20099;-46
2021/04/07 02:17:10;;;;;;;6.93;4.70;;;;;;;-2.11;100.00;95430.72;1045501;28;20042;-47
2021/04/07 02:17:41;;;;;;;8.20;4.70;;;;;;;-2.07;100.00;95432.09;1045130;28;20013;-47
2021/04/07 02:18:11;;;;;;;7.00;4.30;;;;;;;-2.09;100.00;95428.84;1045183;28;20020;-46
2021/04/07 02:18:42;;;;;;;10.60;5.23;;;;;;;-2.02;100.00;95435.09;1044809;28;20371;-44
2021/04/07 02:19:13;;;;;;;8.48;5.10;;;;;;;-2.08;100.00;95420.13;1045205;28;20009;-45
2021/04/07 02:19:43;;;;;;;7.30;4.47;;;;;;;-2.02;100.00;95438.50;1041282;28;20551;-46
2021/04/07 02:20:14;;;;;;;10.20;4.87;;;;;;;-2.03;100.00;95436.84;1040956;28;20017;-46
2021/04/07 02:20:45;;;;;;;7.97;4.50;;;;;;;-2.00;100.00;95434.00;1032867;28;20018;-46
2021/04/07 02:21:16;;;;;;;7.40;4.87;;;;;;;-2.04;100.00;95431.84;1033440;28;20443;-46
2021/04/07 02:22:08;;;;;;;8.87;5.40;;;;;;;-2.13;100.00;95430.88;1040991;28;20014;-48
2021/04/07 02:22:39;;;;;;;9.88;5.30;;;;;;;-2.08;100.00;95433.88;1042620;28;20033;-45
2021/04/07 02:23:10;;;;;;;8.17;5.23;;;;;;;-2.08;100.00;95436.47;1041306;28;20017;-46
2021/04/07 02:23:40;;;;;;;8.90;5.20;;;;;;;-2.09;100.00;95434.00;1041162;28;20009;-46
2021/04/07 02:24:11;;;;;;;8.00;5.10;;;;;;;-2.01;100.00;95434.94;1040974;28;20013;-48
2021/04/07 02:24:43;;;;;;;9.33;5.10;;;;;;;-1.99;100.00;95442.56;1045091;28;20009;-48
2021/04/07 02:25:13;;;;;;;8.43;5.10;;;;;;;-2.06;100.00;95437.13;1045447;28;20025;-46